Wixom, Michigan
Current Conditions -  °F | °C
As of 2:53 PM on Tuesday 21 Oct 2014 (Local Time) from KPTK Reporting Station
Overcast Overcast  
Wind Chill: 37°   Ceiling: 1900
Heat Index: 44°   Visibility: 10mi
Dew Point: 37°   Wind: 16mph
Humidity: 76%   Direction: 340°NNW
Pressure: 30.06"   Gusts: NA
Location:  42.52°N, 83.53°W
Report Text: KPTK 211853Z 34014KT 10SM BKN019 OVC027 07/03 A3006 RMK AO2 SLP185 T00670028
Loading
Personal Weather Stations






























Interactive Weather Map
Tropical Storm Tracking
New forecast layout! Learn more

10-Day Weather Forecast

Advertisements
Track Severe Weather on mobile